createdAt,value
2022-12-08T00:00:48.297Z,12.77
2022-12-08T00:02:50.330Z,12.35
2022-12-08T00:04:52.174Z,11.30
2022-12-08T00:06:53.873Z,12.18
2022-12-08T00:08:55.759Z,10.50
2022-12-08T00:10:57.486Z,11.23
2022-12-08T00:12:59.397Z,11.15
2022-12-08T00:15:01.460Z,11.27
2022-12-08T00:17:05.143Z,10.30
2022-12-08T00:21:08.897Z,10.32
2022-12-08T00:23:10.604Z,10.02
2022-12-08T00:25:12.477Z,10.10
2022-12-08T00:27:16.439Z,9.75
2022-12-08T00:29:18.590Z,11.95
2022-12-08T00:31:20.360Z,8.80
2022-12-08T00:33:22.105Z,10.05
2022-12-08T00:35:24.138Z,11.98
2022-12-08T00:37:26.004Z,10.20
2022-12-08T00:39:28.003Z,10.98
2022-12-08T00:41:29.695Z,9.77
2022-12-08T00:43:31.588Z,9.23
2022-12-08T00:45:33.364Z,8.80
2022-12-08T00:47:35.047Z,8.13
2022-12-08T00:49:36.866Z,7.57
2022-12-08T00:51:39.352Z,8.35
2022-12-08T00:53:41.031Z,8.30
2022-12-08T00:55:43.413Z,9.07
2022-12-08T00:57:45.244Z,9.23
2022-12-08T00:59:46.932Z,8.02
2022-12-08T01:01:49.344Z,7.82
2022-12-08T01:03:51.858Z,7.93
2022-12-08T01:05:53.596Z,9.10
2022-12-08T01:07:55.577Z,7.65
2022-12-08T01:09:57.761Z,7.43
2022-12-08T01:12:00.270Z,7.35
2022-12-08T01:14:02.175Z,7.22
2022-12-08T01:16:04.096Z,7.50
2022-12-08T01:18:05.845Z,7.50
2022-12-08T01:20:08.060Z,8.00
2022-12-08T01:22:09.987Z,7.97
2022-12-08T01:24:17.417Z,7.13
2022-12-08T01:26:19.977Z,7.10
2022-12-08T01:28:21.845Z,8.20
2022-12-08T01:30:23.535Z,7.20
2022-12-08T01:32:25.261Z,7.18
2022-12-08T01:34:27.230Z,7.10
2022-12-08T01:36:31.609Z,6.82
2022-12-08T01:38:33.824Z,6.75
2022-12-08T01:40:35.589Z,6.65
2022-12-08T01:42:37.293Z,7.35
2022-12-08T01:44:39.060Z,6.70
2022-12-08T01:46:43.053Z,7.47
2022-12-08T01:48:44.892Z,7.05
2022-12-08T01:50:48.643Z,7.30
2022-12-08T01:52:55.143Z,6.95
2022-12-08T01:55:02.845Z,6.53
2022-12-08T01:57:10.180Z,6.78
2022-12-08T01:59:12.535Z,6.40
2022-12-08T02:01:14.474Z,6.43
2022-12-08T02:03:27.492Z,7.13
2022-12-08T02:05:33.265Z,7.47
2022-12-08T02:07:36.247Z,6.82
2022-12-08T02:09:40.024Z,7.72
2022-12-08T02:11:41.785Z,7.28
2022-12-08T02:13:45.960Z,7.40
2022-12-08T02:16:09.456Z,7.25
2022-12-08T02:18:23.139Z,7.05
2022-12-08T02:20:37.985Z,7.60
2022-12-08T02:23:11.468Z,7.85
2022-12-08T02:25:24.840Z,8.40
2022-12-08T02:27:48.310Z,7.43
2022-12-08T02:30:08.203Z,7.85
2022-12-08T02:32:28.227Z,7.68
2022-12-08T02:34:39.371Z,8.43
2022-12-08T02:36:43.903Z,7.93
2022-12-08T02:39:00.679Z,7.95
2022-12-08T02:41:17.581Z,7.97
2022-12-08T02:43:28.363Z,8.30
2022-12-08T02:45:36.273Z,9.05
2022-12-08T02:47:38.511Z,8.63
2022-12-08T02:49:40.544Z,8.82
2022-12-08T02:51:43.056Z,8.18
2022-12-08T02:53:45.029Z,8.65
2022-12-08T02:56:25.490Z,8.80
2022-12-08T02:58:35.801Z,9.02
2022-12-08T03:00:48.916Z,9.60
2022-12-08T03:03:16.375Z,9.43
2022-12-08T03:05:28.288Z,9.15
2022-12-08T03:07:38.798Z,8.68
2022-12-08T03:09:56.335Z,8.80
2022-12-08T03:12:23.880Z,8.70
2022-12-08T03:14:26.279Z,9.45
2022-12-08T03:16:30.211Z,8.80
2022-12-08T03:18:35.707Z,9.15
2022-12-08T03:20:40.518Z,8.75
2022-12-08T03:22:44.572Z,8.63
2022-12-08T03:24:47.037Z,8.73
2022-12-08T03:26:51.929Z,9.32
2022-12-08T03:28:53.682Z,9.35
2022-12-08T03:30:59.597Z,9.68
2022-12-08T03:33:07.138Z,9.45
2022-12-08T03:35:14.557Z,9.43
2022-12-08T03:37:16.486Z,10.60
2022-12-08T03:39:18.512Z,9.90
2022-12-08T03:41:22.414Z,10.25
2022-12-08T03:43:24.378Z,9.15
2022-12-08T03:45:26.257Z,9.70
2022-12-08T03:47:27.949Z,9.48
2022-12-08T03:49:30.008Z,9.27
2022-12-08T03:51:31.847Z,9.27
2022-12-08T03:53:33.554Z,9.70
2022-12-08T03:55:35.333Z,9.63
2022-12-08T03:57:37.267Z,9.98
2022-12-08T03:59:38.969Z,9.60
2022-12-08T04:01:40.963Z,9.05
2022-12-08T04:03:42.662Z,10.07
2022-12-08T04:05:44.364Z,9.57
2022-12-08T04:07:46.384Z,10.10
2022-12-08T04:09:48.115Z,10.07
2022-12-08T04:11:49.888Z,9.90
2022-12-08T04:13:51.940Z,9.65
2022-12-08T04:15:53.866Z,10.57
2022-12-08T04:17:55.604Z,10.27
2022-12-08T04:19:57.774Z,10.30
2022-12-08T04:21:59.488Z,10.52
2022-12-08T04:24:01.677Z,10.68
2022-12-08T04:26:03.952Z,10.25
2022-12-08T04:28:06.281Z,9.77
2022-12-08T04:30:08.637Z,10.70
2022-12-08T04:32:10.537Z,9.65
2022-12-08T04:34:12.216Z,10.57
2022-12-08T04:36:13.892Z,10.25
2022-12-08T04:38:17.725Z,10.63
2022-12-08T04:40:19.710Z,9.80
2022-12-08T04:42:21.392Z,10.38
2022-12-08T04:44:23.474Z,10.52
2022-12-08T04:46:25.392Z,10.23
2022-12-08T04:48:27.200Z,10.93
2022-12-08T04:50:29.145Z,13.65
2022-12-08T04:52:30.878Z,11.52
2022-12-08T04:54:32.614Z,17.02
2022-12-08T04:56:34.792Z,16.38
2022-12-08T04:58:36.476Z,17.52
2022-12-08T05:00:38.168Z,39.42
2022-12-08T05:02:40.706Z,17.33
2022-12-08T05:04:42.602Z,32.85
2022-12-08T05:06:44.266Z,156.38
2022-12-08T05:08:46.363Z,70.50
2022-12-08T05:10:48.083Z,32.55
2022-12-08T05:12:49.817Z,48.47
2022-12-08T05:14:51.765Z,12.55
2022-12-08T05:16:53.553Z,123.78
2022-12-08T05:18:55.246Z,30.33
2022-12-08T05:20:57.077Z,18.08
2022-12-08T05:22:58.748Z,43.03
2022-12-08T05:25:00.496Z,40.50
2022-12-08T05:27:02.364Z,33.58
2022-12-08T05:29:04.234Z,22.27
2022-12-08T05:31:06.084Z,15.77
2022-12-08T05:33:07.926Z,12.07
2022-12-08T05:35:10.033Z,14.15
2022-12-08T05:37:11.736Z,12.15
2022-12-08T05:39:14.259Z,15.50
2022-12-08T05:41:19.744Z,13.90
2022-12-08T05:43:21.499Z,11.23
2022-12-08T05:45:23.904Z,11.82
2022-12-08T05:47:26.182Z,10.63
2022-12-08T05:49:27.867Z,11.23
2022-12-08T05:51:30.030Z,12.35
2022-12-08T05:53:31.730Z,12.13
2022-12-08T05:55:33.416Z,10.73
2022-12-08T05:57:35.914Z,10.70
2022-12-08T05:59:38.538Z,11.63
2022-12-08T06:01:40.298Z,11.63
2022-12-08T06:03:42.287Z,11.00
2022-12-08T06:05:45.889Z,15.65
2022-12-08T06:09:49.488Z,17.60
2022-12-08T06:11:51.182Z,12.75
2022-12-08T06:13:53.027Z,12.73
2022-12-08T06:15:55.200Z,11.80
2022-12-08T06:17:56.926Z,12.07
2022-12-08T06:19:58.595Z,11.55
2022-12-08T06:22:00.453Z,11.55
2022-12-08T06:24:02.196Z,11.63
2022-12-08T06:26:06.363Z,13.18
2022-12-08T06:28:08.235Z,13.93
2022-12-08T06:30:10.354Z,13.52
2022-12-08T06:32:12.122Z,12.93
2022-12-08T06:34:14.095Z,12.00
2022-12-08T06:36:18.024Z,11.93
2022-12-08T06:38:19.700Z,11.50
2022-12-08T06:40:21.667Z,11.82
2022-12-08T06:42:23.354Z,11.45
2022-12-08T06:44:25.031Z,12.25
2022-12-08T06:46:27.180Z,12.00
2022-12-08T06:48:28.917Z,12.57
2022-12-08T06:50:30.594Z,12.10
2022-12-08T06:52:32.515Z,12.18
2022-12-08T06:54:34.282Z,11.60
2022-12-08T06:56:35.946Z,12.07
2022-12-08T06:58:38.451Z,11.90
2022-12-08T07:00:41.739Z,11.63
2022-12-08T07:02:43.471Z,11.98
2022-12-08T07:04:45.416Z,11.20
2022-12-08T07:06:47.140Z,11.52
2022-12-08T07:08:48.842Z,12.30
2022-12-08T07:10:50.813Z,11.27
2022-12-08T07:12:52.537Z,12.45
2022-12-08T07:14:54.246Z,12.50
2022-12-08T07:16:56.267Z,12.48
2022-12-08T07:18:58.057Z,13.05
2022-12-08T07:21:07.280Z,12.90
2022-12-08T07:23:09.383Z,12.48
2022-12-08T07:25:11.082Z,13.07
2022-12-08T07:27:12.824Z,12.55
2022-12-08T07:29:14.881Z,13.00
2022-12-08T07:31:22.279Z,12.93
2022-12-08T07:33:24.023Z,12.02
2022-12-08T07:35:25.951Z,12.10
2022-12-08T07:37:27.661Z,11.82
2022-12-08T07:39:29.323Z,11.95
2022-12-08T07:41:31.408Z,13.90
2022-12-08T07:43:33.118Z,16.50
2022-12-08T07:45:34.790Z,32.30
2022-12-08T07:47:36.866Z,23.83
2022-12-08T07:49:38.612Z,21.55
2022-12-08T07:51:40.341Z,12.35
2022-12-08T07:53:48.388Z,12.48
2022-12-08T07:55:53.492Z,12.65
2022-12-08T07:57:55.290Z,18.90
2022-12-08T07:59:57.364Z,35.05
2022-12-08T08:02:22.234Z,23.17
2022-12-08T08:04:20.762Z,15.93
2022-12-08T08:06:23.166Z,17.15
2022-12-08T08:08:24.936Z,16.50
2022-12-08T08:10:26.757Z,14.30
2022-12-08T08:12:31.641Z,14.57
2022-12-08T08:14:34.172Z,14.15
2022-12-08T08:16:38.626Z,19.67
2022-12-08T08:18:41.572Z,15.50
2022-12-08T08:20:43.256Z,36.17
2022-12-08T08:22:51.494Z,35.05
2022-12-08T08:24:54.299Z,27.98
2022-12-08T08:26:56.012Z,16.13
2022-12-08T08:28:57.680Z,12.93
2022-12-08T08:31:00.732Z,21.02
2022-12-08T08:33:02.462Z,31.10
2022-12-08T08:35:04.962Z,17.02
2022-12-08T08:37:06.977Z,25.40
2022-12-08T08:39:08.672Z,18.52
2022-12-08T08:41:11.779Z,31.45
2022-12-08T08:43:13.839Z,39.55
2022-12-08T08:45:15.552Z,15.20
2022-12-08T08:47:17.264Z,45.75
2022-12-08T08:49:19.250Z,32.22
2022-12-08T08:51:20.952Z,21.25
2022-12-08T08:53:23.300Z,57.95
2022-12-08T08:55:25.092Z,30.83
2022-12-08T08:57:26.785Z,26.85
2022-12-08T08:59:28.885Z,26.13
2022-12-08T09:01:30.862Z,22.55
2022-12-08T09:03:32.643Z,17.50
2022-12-08T09:05:34.450Z,13.15
2022-12-08T09:07:36.484Z,17.48
2022-12-08T09:09:38.777Z,15.07
2022-12-08T09:11:40.686Z,13.80
2022-12-08T09:13:42.896Z,13.15
2022-12-08T09:15:44.649Z,10.85
2022-12-08T09:17:46.423Z,15.63
2022-12-08T09:19:48.406Z,15.52
2022-12-08T09:21:50.105Z,13.70
2022-12-08T09:23:55.256Z,12.88
2022-12-08T09:25:57.495Z,13.40
2022-12-08T09:27:59.183Z,11.48
2022-12-08T09:30:01.072Z,11.75
2022-12-08T09:32:03.240Z,12.23
2022-12-08T09:34:05.518Z,12.85
2022-12-08T09:36:07.761Z,12.77
2022-12-08T09:38:09.704Z,12.27
2022-12-08T09:40:17.400Z,10.77
2022-12-08T09:42:40.852Z,12.05
2022-12-08T09:45:09.228Z,11.10
2022-12-08T09:47:30.614Z,10.05
2022-12-08T09:49:53.152Z,10.40
2022-12-08T09:51:55.390Z,11.68
2022-12-08T09:54:03.395Z,12.52
2022-12-08T09:56:17.599Z,12.15
2022-12-08T09:58:31.447Z,11.52
2022-12-08T10:00:34.270Z,12.15
2022-12-08T10:02:36.117Z,11.80
2022-12-08T10:04:38.842Z,11.57
2022-12-08T10:06:43.520Z,16.93
2022-12-08T10:09:17.212Z,12.35
2022-12-08T10:11:31.336Z,13.90
2022-12-08T10:13:44.727Z,11.30
2022-12-08T10:16:25.412Z,10.48
2022-12-08T10:18:33.994Z,12.40
2022-12-08T10:20:41.903Z,10.57
2022-12-08T10:22:46.214Z,19.30
2022-12-08T10:24:53.929Z,16.33
2022-12-08T10:26:56.303Z,19.90
2022-12-08T10:28:58.103Z,19.13
2022-12-08T10:31:00.255Z,16.17
2022-12-08T10:33:02.160Z,12.43
2022-12-08T10:35:07.831Z,12.75
2022-12-08T10:37:10.467Z,20.50
2022-12-08T10:39:29.869Z,12.48
2022-12-08T10:41:31.574Z,14.20
2022-12-08T10:43:34.662Z,13.20
2022-12-08T10:45:40.880Z,15.52
2022-12-08T10:47:45.359Z,14.95
2022-12-08T10:49:47.827Z,15.68
2022-12-08T10:51:49.748Z,15.50
2022-12-08T10:53:51.460Z,17.48
2022-12-08T10:56:07.084Z,18.90
2022-12-08T10:58:34.038Z,18.05
2022-12-08T11:00:39.453Z,20.02
2022-12-08T11:02:53.536Z,20.95
2022-12-08T11:06:59.584Z,20.30
2022-12-08T11:09:04.879Z,22.75
2022-12-08T11:11:06.617Z,23.20
2022-12-08T11:13:23.638Z,20.70
2022-12-08T11:15:25.811Z,22.20
2022-12-08T11:17:29.045Z,22.55
2022-12-08T11:19:30.795Z,23.95
2022-12-08T11:21:41.518Z,22.13
2022-12-08T11:23:48.356Z,20.42
2022-12-08T11:25:51.754Z,20.15
2022-12-08T11:27:58.987Z,22.10
2022-12-08T11:30:02.237Z,23.02
2022-12-08T11:32:12.745Z,21.80
2022-12-08T11:34:27.285Z,22.63
2022-12-08T11:36:32.196Z,22.73
2022-12-08T11:38:34.504Z,21.35
2022-12-08T11:40:39.157Z,22.55
2022-12-08T11:43:06.491Z,23.35
2022-12-08T11:45:14.803Z,22.05
2022-12-08T11:47:35.398Z,24.75
2022-12-08T11:49:39.975Z,24.02
2022-12-08T11:51:50.431Z,27.05
2022-12-08T11:54:26.241Z,24.35
2022-12-08T11:56:38.239Z,22.10
2022-12-08T11:58:54.019Z,26.30
2022-12-08T12:00:55.861Z,25.65
2022-12-08T12:03:11.575Z,23.90
2022-12-08T12:06:08.609Z,23.42
2022-12-08T12:08:25.369Z,28.98
2022-12-08T12:10:48.470Z,29.73
2022-12-08T12:13:11.782Z,28.63
2022-12-08T12:15:44.511Z,32.30
2022-12-08T12:18:23.944Z,29.42
2022-12-08T12:20:33.586Z,31.55
2022-12-08T12:22:37.852Z,27.15
2022-12-08T12:24:40.265Z,27.15
2022-12-08T12:27:14.052Z,26.42
2022-12-08T12:29:21.789Z,26.20
2022-12-08T12:31:27.752Z,40.45
2022-12-08T12:33:33.183Z,40.00
2022-12-08T12:35:41.229Z,35.30
2022-12-08T12:37:43.483Z,30.88
2022-12-08T12:40:02.657Z,29.85
2022-12-08T12:42:05.259Z,40.20
2022-12-08T12:44:11.917Z,45.65
2022-12-08T12:46:53.390Z,49.25
2022-12-08T12:49:33.444Z,71.82
2022-12-08T12:51:57.927Z,41.25
2022-12-08T12:54:23.810Z,26.30
2022-12-08T12:56:50.230Z,29.10
2022-12-08T12:58:54.238Z,33.63
2022-12-08T13:01:11.370Z,33.88
2022-12-08T13:03:17.808Z,33.30
2022-12-08T13:05:26.317Z,24.63
2022-12-08T13:07:31.964Z,27.23
2022-12-08T13:09:39.343Z,25.58
2022-12-08T13:11:54.025Z,24.85
2022-12-08T13:14:05.307Z,24.65
2022-12-08T13:16:18.513Z,24.08
2022-12-08T13:20:57.382Z,21.63
2022-12-08T13:23:13.357Z,26.05
2022-12-08T13:25:40.025Z,25.42
2022-12-08T13:27:52.885Z,22.50
2022-12-08T13:30:41.194Z,23.67
2022-12-08T13:35:20.871Z,24.23
2022-12-08T13:37:29.807Z,24.55
2022-12-08T13:39:40.621Z,21.33
2022-12-08T13:41:48.391Z,19.52
2022-12-08T13:44:50.882Z,20.17
2022-12-08T13:53:22.348Z,22.38
2022-12-08T13:57:05.592Z,21.30
2022-12-08T13:59:25.528Z,20.45
2022-12-08T14:01:27.666Z,19.33
2022-12-08T14:03:29.788Z,20.63
2022-12-08T14:06:11.209Z,22.80
2022-12-08T14:08:03.822Z,20.98
2022-12-08T14:10:15.920Z,20.17
2022-12-08T14:12:22.201Z,19.75
2022-12-08T14:14:53.904Z,22.02
2022-12-08T14:17:01.521Z,20.55
2022-12-08T14:21:20.843Z,37.15
2022-12-08T14:23:23.210Z,31.42
2022-12-08T14:25:26.899Z,33.25
2022-12-08T14:29:45.482Z,22.73
2022-12-08T14:31:47.376Z,24.67
2022-12-08T14:33:53.324Z,21.80
2022-12-08T14:35:58.437Z,25.13
2022-12-08T14:38:02.416Z,23.95
2022-12-08T14:40:22.974Z,20.27
2022-12-08T14:42:27.372Z,22.92
2022-12-08T14:44:32.984Z,20.77
2022-12-08T14:46:34.752Z,22.60
2022-12-08T14:48:36.481Z,21.63
2022-12-08T14:50:54.985Z,19.67
2022-12-08T14:52:56.808Z,20.85
2022-12-08T14:54:59.004Z,20.88
2022-12-08T14:57:02.583Z,23.00
2022-12-08T15:01:23.854Z,25.55
2022-12-08T15:03:29.359Z,29.35
2022-12-08T15:05:32.585Z,31.80
2022-12-08T15:07:46.250Z,32.95
2022-12-08T15:10:18.509Z,51.67
2022-12-08T15:12:27.055Z,64.57
2022-12-08T15:14:35.840Z,49.67
2022-12-08T15:16:42.872Z,42.22
2022-12-08T15:18:44.815Z,57.30
2022-12-08T15:20:49.114Z,32.78
2022-12-08T15:22:51.408Z,40.30
2022-12-08T15:24:54.117Z,54.33
2022-12-08T15:26:56.305Z,52.33
2022-12-08T15:28:58.038Z,51.55
2022-12-08T15:30:59.893Z,47.53
2022-12-08T15:33:01.815Z,69.90
2022-12-08T15:35:03.615Z,65.85
2022-12-08T15:37:18.694Z,87.95
2022-12-08T15:39:36.335Z,65.93
2022-12-08T15:41:38.017Z,51.60
2022-12-08T15:43:40.094Z,42.33
2022-12-08T15:45:48.110Z,61.28
2022-12-08T15:47:56.873Z,78.50
2022-12-08T15:49:58.591Z,62.97
2022-12-08T15:52:11.191Z,58.80
2022-12-08T15:54:14.408Z,49.42
2022-12-08T15:56:27.379Z,59.15
2022-12-08T16:00:54.428Z,50.95
2022-12-08T16:05:42.313Z,74.72
2022-12-08T16:07:40.486Z,75.53
2022-12-08T16:09:44.078Z,79.15
2022-12-08T16:14:54.689Z,83.28
2022-12-08T16:16:30.588Z,62.38
2022-12-08T16:18:36.499Z,54.78
2022-12-08T16:21:05.958Z,46.97
2022-12-08T16:23:13.471Z,42.95
2022-12-08T16:25:23.390Z,83.90
2022-12-08T16:28:00.063Z,79.45
2022-12-08T16:29:51.346Z,92.35
2022-12-08T16:31:53.176Z,50.28
2022-12-08T16:33:55.032Z,51.55
2022-12-08T16:35:57.050Z,55.45
2022-12-08T16:37:58.991Z,48.30
2022-12-08T16:40:01.071Z,64.78
2022-12-08T16:42:02.828Z,73.47
2022-12-08T16:44:05.654Z,66.22
2022-12-08T16:46:17.342Z,53.55
2022-12-08T16:48:19.043Z,63.03
2022-12-08T16:50:24.328Z,47.95
2022-12-08T16:52:26.091Z,47.08
2022-12-08T16:54:29.442Z,47.55
2022-12-08T16:56:33.536Z,69.05
2022-12-08T16:58:35.580Z,165.32
2022-12-08T17:00:37.489Z,180.00
2022-12-08T17:02:39.378Z,202.32
2022-12-08T17:04:41.409Z,131.10
2022-12-08T17:06:43.126Z,93.93
2022-12-08T17:08:45.660Z,106.55
2022-12-08T17:10:47.391Z,85.38
2022-12-08T17:12:50.168Z,82.38
2022-12-08T17:14:52.105Z,86.30
2022-12-08T17:16:54.093Z,93.90
2022-12-08T17:18:55.968Z,90.68
2022-12-08T17:20:57.779Z,62.97
2022-12-08T17:22:59.496Z,52.60
2022-12-08T17:25:02.527Z,48.70
2022-12-08T17:27:05.045Z,115.22
2022-12-08T17:29:06.736Z,73.32
2022-12-08T17:31:14.492Z,81.15
2022-12-08T17:33:16.391Z,78.82
2022-12-08T17:35:18.104Z,64.10
2022-12-08T17:37:19.791Z,96.47
2022-12-08T17:39:21.706Z,92.97
2022-12-08T17:41:23.429Z,59.22
2022-12-08T17:43:25.097Z,86.00
2022-12-08T17:45:27.100Z,63.20
2022-12-08T17:47:28.876Z,85.25
2022-12-08T17:49:31.472Z,62.47
2022-12-08T17:51:33.635Z,79.10
2022-12-08T17:53:37.544Z,71.90
2022-12-08T17:55:40.225Z,76.63
2022-12-08T17:57:42.084Z,81.70
2022-12-08T17:59:43.805Z,86.20
2022-12-08T18:01:45.660Z,84.10
2022-12-08T18:03:47.650Z,59.75
2022-12-08T18:05:49.370Z,65.20
2022-12-08T18:07:51.603Z,85.22
2022-12-08T18:09:53.550Z,73.35
2022-12-08T18:11:55.281Z,69.57
2022-12-08T18:13:57.557Z,102.72
2022-12-08T18:15:59.396Z,104.95
2022-12-08T18:18:01.090Z,210.13
2022-12-08T18:20:03.061Z,63.38
2022-12-08T18:22:05.250Z,65.28
2022-12-08T18:24:07.954Z,59.67
2022-12-08T18:26:12.343Z,55.20
2022-12-08T18:28:14.210Z,47.83
2022-12-08T18:30:17.843Z,44.08
2022-12-08T18:34:21.296Z,40.80
2022-12-08T18:36:25.878Z,59.60
2022-12-08T18:38:27.571Z,38.30
2022-12-08T18:40:29.614Z,44.13
2022-12-08T18:42:31.321Z,52.92
2022-12-08T18:44:33.070Z,44.47
2022-12-08T18:46:35.012Z,43.63
2022-12-08T18:48:39.268Z,47.08
2022-12-08T18:50:41.776Z,53.63
2022-12-08T18:52:45.379Z,53.88
2022-12-08T18:57:08.352Z,52.63
2022-12-08T18:59:12.319Z,51.90
2022-12-08T19:01:14.905Z,71.63
2022-12-08T19:03:16.619Z,64.18
2022-12-08T19:05:18.496Z,77.32
2022-12-08T19:07:20.206Z,60.17
2022-12-08T19:09:21.969Z,68.20
2022-12-08T19:11:30.732Z,49.85
2022-12-08T19:13:32.665Z,45.30
2022-12-08T19:15:34.857Z,55.80
2022-12-08T19:17:37.157Z,37.67
2022-12-08T19:19:38.825Z,38.42
2022-12-08T19:21:46.136Z,35.65
2022-12-08T19:23:48.520Z,44.70
2022-12-08T19:25:50.285Z,34.75
2022-12-08T19:27:52.018Z,38.47
2022-12-08T19:29:53.864Z,42.00
2022-12-08T19:31:55.812Z,40.90
2022-12-08T19:33:57.605Z,36.30
2022-12-08T19:35:59.845Z,38.47
2022-12-08T19:38:01.563Z,75.22
2022-12-08T19:40:04.147Z,113.60
2022-12-08T19:42:26.490Z,88.07
2022-12-08T19:44:29.018Z,88.88
2022-12-08T19:46:33.574Z,37.33
2022-12-08T19:48:38.045Z,34.60
2022-12-08T19:50:40.160Z,31.83
2022-12-08T19:52:42.265Z,39.78
2022-12-08T19:54:44.525Z,34.28
2022-12-08T19:56:46.274Z,38.95
2022-12-08T19:58:48.008Z,58.20
2022-12-08T20:00:50.171Z,70.97
2022-12-08T20:02:52.275Z,74.57
2022-12-08T20:04:54.014Z,38.78
2022-12-08T20:06:57.603Z,40.47
2022-12-08T20:11:00.916Z,40.78
2022-12-08T20:13:03.678Z,37.38
2022-12-08T20:15:06.080Z,49.83
2022-12-08T20:17:08.494Z,38.33
2022-12-08T20:19:10.647Z,37.33
2022-12-08T20:21:12.459Z,42.38
2022-12-08T20:23:15.623Z,43.55
2022-12-08T20:25:17.707Z,68.63
2022-12-08T20:27:19.687Z,57.45
2022-12-08T20:29:21.507Z,53.47
2022-12-08T20:31:28.554Z,57.80
2022-12-08T20:33:30.342Z,72.95
2022-12-08T20:35:32.066Z,89.03
2022-12-08T20:37:33.765Z,58.25
2022-12-08T20:39:35.510Z,79.93
2022-12-08T20:41:39.311Z,71.90
2022-12-08T20:43:41.270Z,51.42
2022-12-08T20:45:43.142Z,35.65
2022-12-08T20:47:44.848Z,42.88
2022-12-08T20:49:47.782Z,31.13
2022-12-08T20:51:49.603Z,54.80
2022-12-08T20:53:51.305Z,48.08
2022-12-08T20:55:53.650Z,37.60
2022-12-08T20:57:55.675Z,56.17
2022-12-08T20:59:57.368Z,83.93
2022-12-08T21:01:59.730Z,67.65
2022-12-08T21:04:01.709Z,71.13
2022-12-08T21:06:03.837Z,60.42
2022-12-08T21:08:08.543Z,51.42
2022-12-08T21:10:11.008Z,59.97
2022-12-08T21:12:19.342Z,47.55
2022-12-08T21:14:21.386Z,45.50
2022-12-08T21:16:23.356Z,40.53
2022-12-08T21:18:25.709Z,48.25
2022-12-08T21:20:27.756Z,43.28
2022-12-08T21:22:29.490Z,43.58
2022-12-08T21:24:34.352Z,39.60
2022-12-08T21:26:36.641Z,42.90
2022-12-08T21:28:38.512Z,45.22
2022-12-08T21:30:41.212Z,49.40
2022-12-08T21:32:43.108Z,50.03
2022-12-08T21:34:45.262Z,52.00
2022-12-08T21:36:47.019Z,54.08
2022-12-08T21:38:49.353Z,58.17
2022-12-08T21:40:51.090Z,54.30
2022-12-08T21:42:53.370Z,57.15
2022-12-08T21:44:55.165Z,54.83
2022-12-08T21:46:57.110Z,58.38
2022-12-08T21:48:59.023Z,56.03
2022-12-08T21:51:05.403Z,56.30
2022-12-08T21:53:07.395Z,47.05
2022-12-08T21:55:11.024Z,54.80
2022-12-08T21:59:15.802Z,64.75
2022-12-08T22:01:17.646Z,71.28
2022-12-08T22:03:20.119Z,54.42
2022-12-08T22:05:22.110Z,45.65
2022-12-08T22:07:24.105Z,43.72
2022-12-08T22:09:26.171Z,43.38
2022-12-08T22:11:28.307Z,42.78
2022-12-08T22:13:30.053Z,49.53
2022-12-08T22:15:31.982Z,51.83
2022-12-08T22:17:41.777Z,45.08
2022-12-08T22:19:43.664Z,45.00
2022-12-08T22:21:45.546Z,46.80
2022-12-08T22:23:47.494Z,44.20
2022-12-08T22:25:57.242Z,42.10
2022-12-08T22:27:59.018Z,42.92
2022-12-08T22:30:00.891Z,49.20
2022-12-08T22:32:02.949Z,46.80
2022-12-08T22:34:04.875Z,50.40
2022-12-08T22:36:11.024Z,55.13
2022-12-08T22:38:13.020Z,57.00
2022-12-08T22:40:14.992Z,53.15
2022-12-08T22:42:16.825Z,42.13
2022-12-08T22:44:18.558Z,40.78
2022-12-08T22:46:25.657Z,42.63
2022-12-08T22:48:27.661Z,49.72
2022-12-08T22:50:29.400Z,34.75
2022-12-08T22:52:31.581Z,42.10
2022-12-08T22:54:33.397Z,43.70
2022-12-08T22:56:35.179Z,39.65
2022-12-08T22:58:38.610Z,35.13
2022-12-08T23:00:40.556Z,38.38
2022-12-08T23:02:42.369Z,32.92
2022-12-08T23:04:44.739Z,36.67
2022-12-08T23:06:46.726Z,40.42
2022-12-08T23:08:48.478Z,37.65
2022-12-08T23:10:52.796Z,35.72
2022-12-08T23:12:56.808Z,37.00
2022-12-08T23:15:01.444Z,35.75
2022-12-08T23:17:03.672Z,38.15
2022-12-08T23:19:05.908Z,37.47
2022-12-08T23:21:13.534Z,40.05
2022-12-08T23:23:15.549Z,40.75
2022-12-08T23:25:17.521Z,44.58
2022-12-08T23:27:19.225Z,38.05
2022-12-08T23:31:40.425Z,34.63
2022-12-08T23:33:42.700Z,40.22
2022-12-08T23:35:44.795Z,39.40
2022-12-08T23:37:46.590Z,43.17
2022-12-08T23:39:48.463Z,37.00
2022-12-08T23:41:51.182Z,38.03
2022-12-08T23:43:53.301Z,37.40
2022-12-08T23:45:55.186Z,34.85
2022-12-08T23:47:56.978Z,34.60
2022-12-08T23:49:59.026Z,32.78
2022-12-08T23:52:00.809Z,32.70
2022-12-08T23:54:06.140Z,33.25
2022-12-08T23:56:11.193Z,31.17
2022-12-08T23:58:12.979Z,33.65
